Flight Track Log - Related Links

Times and Time Zones

All times are in EDT time to prevent confusion due to time zone crossing. See the QFA500 flight status page for this flight to view local times or setup timezone preferences in your user account.

Time Position Orientation Groundspeed Altitude Reporting Facility
EDT Latitude Longitude Course Direction KTS MPH feet Rate Location/Type
Sun 04:22:17 PM -33.9451 151.1872 348° North 165 190 500  Level FlightAware ADS-B (KCLL)
Sun 04:22:25 PM -33.9380 151.1865 North 163 188 800 2,667 Climbing FlightAware ADS-B (YRAY)
Sun 04:22:35 PM -33.9304 151.1896 28° Northeast 170 196 1,300 2,308 Climbing FlightAware ADS-B (YRAY)
Sun 04:22:38 PM -33.9317 151.1888 19° North 175 201 1,300 1,636 Level FlightAware ADS-B (YPLB)
Sun 04:22:46 PM -33.9232 151.1954 36° Northeast 182 209 1,600 1,333 Climbing FlightAware ADS-B (YRAY)
Sun 04:23:05 PM -33.9078 151.2093 38° Northeast 226 260 1,900 1,125 Climbing FlightAware ADS-B (YRAY)
Sun 04:23:18 PM -33.8976 151.2187 37° Northeast 240 276 2,200 2,516 Climbing FlightAware ADS-B (YPLB)
Sun 04:23:36 PM -33.8809 151.2339 37° Northeast 246 283 3,200 2,143 Climbing FlightAware ADS-B (YRAY)
Sun 04:24:00 PM -33.8563 151.2554 36° Northeast 280 322 3,700 977 Climbing FlightAware ADS-B (YPLB)
Sun 04:24:19 PM -33.8387 151.2709 37° Northeast 310 357 3,900 750 Climbing FlightAware ADS-B (KCLL)
Sun 04:24:24 PM -33.8370 151.2725 45° Northeast 320 368 4,000 857 Climbing FlightAware ADS-B (YSRI)
Sun 04:24:33 PM -33.8229 151.2915 56° Northeast 329 379 4,100 333 Climbing FlightAware ADS-B (YRAY)
Sun 04:24:42 PM -33.8216 151.2942 71° East 337 388 4,100 240 Level FlightAware ADS-B (YSRI)
Sun 04:24:58 PM -33.8087 151.3375 73° East 344 396 4,200 774 Climbing FlightAware ADS-B (YRAY)
Sun 04:25:13 PM -33.8011 151.3632 71° East 346 398 4,500 1,364 Climbing FlightAware ADS-B (YRAY)
Sun 04:25:20 PM -33.7955 151.3756 58° Northeast 345 397 4,700 2,250 Climbing FlightAware ADS-B (KCLL)
Sun 04:25:29 PM -33.7861 151.3882 44° Northeast 342 394 5,100 4,080 Climbing FlightAware ADS-B (YPLB)
Sun 04:25:45 PM -33.7654 151.4040 25° Northeast 333 383 6,400 3,771 Climbing FlightAware ADS-B (YSRI)
Sun 04:26:04 PM -33.7395 151.4151 19° North 339 390 7,300 2,538 Climbing FlightAware ADS-B (YSRI)
Sun 04:26:11 PM -33.7261 151.4206 19° North 342 394 7,500 2,625 Climbing FlightAware ADS-B (YRAY)
Sun 04:26:20 PM -33.7146 151.4253 19° North 345 397 8,000 2,786 Climbing FlightAware ADS-B (KCLL)
Sun 04:26:39 PM -33.6846 151.4373 18° North 349 402 8,800 2,833 Climbing FlightAware ADS-B (YPLB)
Sun 04:26:56 PM -33.6600 151.4471 19° North 351 404 9,700 3,714 Climbing FlightAware ADS-B (YRAY)
Sun 04:27:00 PM -33.6515 151.4505 19° North 352 405 10,100 2,880 Climbing FlightAware ADS-B (YSRI)
Sun 04:27:21 PM -33.6224 151.4623 19° North 357 411 10,900 2,850 Climbing FlightAware ADS-B (KCLL)
Sun 04:27:40 PM -33.5936 151.4739 19° North 361 415 12,000 3,000 Climbing FlightAware ADS-B (YSRI)
Sun 04:27:51 PM -33.5754 151.4813 19° North 362 417 12,400 2,200 Climbing FlightAware ADS-B (YSRI)
Sun 04:28:10 PM -33.5408 151.4953 19° North 362 417 13,100 2,634 Climbing FlightAware ADS-B (YRAY)
Sun 04:28:32 PM -33.5058 151.5095 18° North 374 430 14,200 2,927 Climbing FlightAware ADS-B (YPLB)
Sun 04:28:51 PM -33.4746 151.5221 18° North 377 434 15,100 3,000 Climbing FlightAware ADS-B (YPLB)
Sun 04:29:22 PM -33.4211 151.5438 19° North 385 443 16,700 2,941 Climbing FlightAware ADS-B (YSRI)
Sun 04:29:42 PM -33.3870 151.5576 19° North 392 451 17,600 2,516 Climbing FlightAware ADS-B (YSRI)
Sun 04:29:53 PM -33.3753 151.5623 19° North 395 455 18,000 2,842 Climbing FlightAware ADS-B (YSRI)
Sun 04:30:01 PM -33.3554 151.5704 19° North 396 456 18,500 2,368 Climbing FlightAware ADS-B (YSRI)
Sun 04:30:31 PM -33.3030 151.5916 18° North 402 463 19,500 2,476 Climbing FlightAware ADS-B (YPLB)
Sun 04:31:04 PM -33.2441 151.6154 19° North 404 465 21,100 2,531 Climbing FlightAware ADS-B (YSRI)
Sun 04:31:35 PM -33.1882 151.6378 19° North 412 474 22,200 2,250 Climbing FlightAware ADS-B (YSRI)
Sun 04:31:52 PM -33.1580 151.6500 19° North 417 480 22,900 2,040 Climbing FlightAware ADS-B (YSRI)
Sun 04:32:25 PM -33.1123 151.6683 19° North 424 488 23,900 1,905 Climbing FlightAware ADS-B (YSRI)
Sun 04:32:55 PM -33.0407 151.6970 19° North 430 495 24,900 2,000 Climbing FlightAware ADS-B (YSRI)
Sun 04:33:25 PM -32.9835 151.7200 19° North 433 498 25,900 1,800 Climbing FlightAware ADS-B (YSRI)
Sun 04:33:55 PM -32.9267 151.7427 19° North 439 505 26,700 1,696 Climbing FlightAware ADS-B (YSRI)
Sun 04:34:11 PM -32.8945 151.7556 19° North 445 512 27,200 1,556 Climbing FlightAware ADS-B (YSRI)
Sun 04:34:22 PM -32.8750 151.7634 19° North 448 516 27,400 1,256 Climbing FlightAware ADS-B (YSRI)
Sun 04:34:54 PM -32.8112 151.7890 19° North 454 522 28,100 1,592 Climbing FlightAware ADS-B (YSRI)
Sun 04:35:11 PM -32.7818 151.8007 19° North 457 526 28,700 1,556 Climbing FlightAware ADS-B (YSRI)
Sun 04:35:21 PM -32.7604 151.8092 19° North 457 526 28,800 1,317 Climbing FlightAware ADS-B (YSRI)
Sun 04:35:52 PM -32.6964 151.8348 18° North 460 529 29,600 1,437 Climbing FlightAware ADS-B (YPLB)
Sun 04:36:32 PM -32.6143 151.8674 18° North 466 536 30,500 1,320 Climbing FlightAware ADS-B (YPLB)
Sun 04:36:42 PM -32.5946 151.8752 18° North 467 537 30,700 1,463 Climbing FlightAware ADS-B (YPLB)
Sun 04:37:13 PM -32.5296 151.9008 18° North 467 537 31,500 1,915 Climbing FlightAware ADS-B (YPLB)
Sun 04:37:29 PM -32.5042 151.9109 19° North 463 533 32,200 1,778 Climbing FlightAware ADS-B (YSRI)
Sun 04:37:40 PM -32.4750 151.9226 18° North 461 531 32,300 1,674 Climbing FlightAware ADS-B (YPLB)
Sun 04:38:12 PM -32.4102 151.9483 18° North 451 519 33,400 2,143 Climbing FlightAware ADS-B (YPLB)
Sun 04:38:22 PM -32.3886 151.9568 19° North 448 516 33,800 1,500 Climbing FlightAware ADS-B (YSRI)
Sun 04:38:52 PM -32.3319 151.9792 18° North 445 512 34,400 1,100 Climbing FlightAware ADS-B (YPLB)
Sun 04:39:22 PM -32.2732 152.0021 18° North 450 518 34,900 1,000 Climbing FlightAware ADS-B (YPLB)
Sun 04:39:28 PM -32.2924 151.9946 19° North 451 519 35,000 1,071 Climbing FlightAware ADS-B (YSRI)
Sun 04:39:50 PM -32.2162 152.0244 19° North 450 518 35,400 1,636 Climbing FlightAware ADS-B (YSRI)
Sun 04:40:01 PM -32.1950 152.0328 19° North 446 513 35,900 1,902 Climbing FlightAware ADS-B (YSRI)
Sun 04:40:31 PM -32.1381 152.0554 18° North 437 503 36,700 1,355 Climbing FlightAware ADS-B (YPLB)
Sun 04:41:03 PM -32.0775 152.0792 18° North 432 497 37,300 857 Climbing FlightAware ADS-B (YPLB)
Sun 04:41:41 PM -32.0065 152.1069 18° North 432 497 37,700 696 Climbing FlightAware ADS-B (YPLB)
Sun 04:42:12 PM -31.9487 152.1294 18° North 432 497 38,100 771 Climbing FlightAware ADS-B (YPLB)
Sun 04:42:51 PM -31.8715 152.1596 18° North 432 497 38,600 676 Climbing FlightAware ADS-B (YPLB)
Sun 04:43:23 PM -31.8121 152.1828 18° North 431 496 38,900 333 Climbing FlightAware ADS-B (YPLB)
Sun 04:44:03 PM -31.7374 152.2122 18° North 431 496 39,000 76 Climbing FlightAware ADS-B (YPLB)
Sun 04:44:42 PM -31.6632 152.2410 18° North 431 496 39,000  Level FlightAware ADS-B (YPLB)
Sun 04:45:12 PM -31.6043 152.2638 18° North 430 495 39,000  Level FlightAware ADS-B (YPLB)
Sun 04:45:43 PM -31.5450 152.2867 18° North 431 496 39,000  Level FlightAware ADS-B (YPLB)
Sun 04:46:22 PM -31.4717 152.3150 18° North 429 494 39,000  Level FlightAware ADS-B (YPLB)
Sun 04:46:54 PM -31.4130 152.3376 18° North 430 495 39,000  Level FlightAware ADS-B (YPLB)
Sun 04:47:33 PM -31.3365 152.3674 18° North 430 495 39,000  Level FlightAware ADS-B (YPLB)
Sun 04:48:03 PM -31.2818 152.3882 18° North 430 495 39,000  Level FlightAware ADS-B (YPLB)
Sun 04:48:42 PM -31.2069 152.4172 18° North 432 497 39,000  Level FlightAware ADS-B (YPLB)
Sun 04:49:12 PM -31.1488 152.4396 18° North 432 497 39,000  Level FlightAware ADS-B (YPLB)
Sun 04:49:52 PM -31.0787 152.4667 18° North 435 501 39,000  Level FlightAware ADS-B (YPLB)
Sun 04:50:22 PM -31.0313 152.4848 18° North 434 499 39,000  Level FlightAware ADS-B (YPLB)
Sun 04:51:01 PM -31.0339 152.4838 18° North 435 501 39,000 129 Level FlightAware ADS-B
Sun 04:51:55 PM -30.8371 152.5594 18° North 429 494 39,200  Climbing Aus ATC (RADAR)
Sun 04:53:26 PM -30.6640 152.6224 18° North 418 481 39,000 -94 Descending FlightAware ADS-B
Sun 04:54:03 PM -30.6004 152.6453 17° North 423 487 39,000  Level FlightAware ADS-B
Sun 04:54:33 PM -30.5451 152.6654 18° North 415 478 39,000 -200 Level FlightAware ADS-B
Sun 04:55:03 PM -30.4853 152.6871 17° North 403 464 38,800 -500 Descending FlightAware ADS-B
Sun 04:55:33 PM -30.4333 152.7057 17° North 391 450 38,500 -590 Descending FlightAware ADS-B
Sun 04:56:04 PM -30.3811 152.7250 18° North 386 444 38,200 -610 Descending FlightAware ADS-B
Sun 04:56:32 PM -30.3331 152.7426 17° North 379 436 37,900 -508 Descending FlightAware ADS-B
Sun 04:57:03 PM -30.2832 152.7604 17° North 374 430 37,700 -492 Descending FlightAware ADS-B
Sun 04:57:33 PM -30.2324 152.7785 17° North 369 425 37,400 -500 Descending FlightAware ADS-B
Sun 04:58:03 PM -30.1827 152.7961 17° North 366 421 37,200 -492 Descending FlightAware ADS-B
Sun 04:58:34 PM -30.1376 152.8122 17° North 362 417 36,900 -514 Descending FlightAware ADS-B
Sun 04:59:13 PM -30.0714 152.8359 17° North 354 407 36,600 -522 Descending FlightAware ADS-B
Sun 04:59:43 PM -30.0251 152.8524 17° North 348 400 36,300 -600 Descending FlightAware ADS-B
Sun 05:00:13 PM -29.9796 152.8685 17° North 348 400 36,000 -480 Descending FlightAware ADS-B
Sun 05:00:33 PM -29.9509 152.8787 17° North 349 402 35,900 -480 Descending FlightAware ADS-B
Sun 05:01:03 PM -29.9023 152.8963 18° North 349 402 35,600 -500 Descending FlightAware ADS-B
Sun 05:01:33 PM -29.8555 152.9131 17° North 348 400 35,400 -500 Descending FlightAware ADS-B
Sun 05:02:03 PM -29.8095 152.9296 17° North 345 397 35,100 -500 Descending FlightAware ADS-B
Sun 05:02:33 PM -29.7636 152.9458 18° North 339 390 34,900 -492 Descending FlightAware ADS-B
Sun 05:03:04 PM -29.7171 152.9624 17° North 347 399 34,600 -492 Descending FlightAware ADS-B
Sun 05:03:34 PM -29.6718 152.9785 17° North 344 396 34,400 -514 Descending FlightAware ADS-B
Sun 05:04:14 PM -29.6108 152.9998 17° North 341 392 34,000 -508 Descending FlightAware ADS-B
Sun 05:04:33 PM -29.5809 153.0103 17° North 346 398 33,900 -367 Descending FlightAware ADS-B
Sun 05:05:03 PM -29.5343 153.0271 18° North 352 405 33,700 -500 Descending FlightAware ADS-B
Sun 05:05:33 PM -29.4876 153.0440 18° North 349 402 33,400 -492 Descending FlightAware ADS-B
Sun 05:06:04 PM -29.4414 153.0604 17° North 344 396 33,200 -514 Descending FlightAware ADS-B
Sun 05:06:43 PM -29.3811 153.0814 17° North 342 394 32,800 -522 Descending FlightAware ADS-B
Sun 05:07:13 PM -29.3362 153.0972 17° North 338 389 32,600 -500 Descending FlightAware ADS-B
Sun 05:07:43 PM -29.2917 153.1129 17° North 335 386 32,300 -500 Descending FlightAware ADS-B
Sun 05:08:13 PM -29.2481 153.1279 17° North 344 396 32,100 -480 Descending FlightAware ADS-B
Sun 05:08:33 PM -29.2152 153.1394 17° North 349 402 31,900 -480 Descending FlightAware ADS-B
Sun 05:09:03 PM -29.1723 153.1547 18° North 350 403 31,700 -444 Descending FlightAware ADS-B
Sun 05:09:27 PM -29.1332 153.1687 17° North 346 398 31,500 -429 Descending FlightAware ADS-B
Sun 05:09:59 PM -29.0847 153.1857 17° North 336 387 31,300 -476 Descending FlightAware ADS-B (EGHI / SOU)
Sun 05:10:30 PM -29.0357 153.2027 17° North 338 389 31,000 -590 Descending FlightAware ADS-B (EGHI / SOU)
Sun 05:11:00 PM -28.9909 153.2183 18° North 337 388 30,700 -581 Descending FlightAware ADS-B (EGHI / SOU)
Sun 05:11:32 PM -28.9416 153.2357 17° North 339 390 30,400 -571 Descending FlightAware ADS-B
Sun 05:12:03 PM -28.8969 153.2513 17° North 338 389 30,100 -984 Descending FlightAware ADS-B
Sun 05:12:33 PM -28.8518 153.2669 17° North 334 384 29,400 -1,500 Descending FlightAware ADS-B
Sun 05:13:03 PM -28.8067 153.2825 17° North 331 381 28,600 -1,565 Descending FlightAware ADS-B
Sun 05:13:19 PM -28.7828 153.2910 18° North 322 371 28,200 -1,600 Descending FlightAware ADS-B (EGHI / SOU)
Sun 05:13:33 PM -28.7634 153.2979 17° North 331 381 27,800 -1,636 Descending FlightAware ADS-B
Sun 05:14:03 PM -28.7192 153.3135 17° North 336 387 27,000 -1,500 Descending FlightAware ADS-B
Sun 05:14:33 PM -28.6747 153.3292 18° North 325 374 26,300 -1,475 Descending FlightAware ADS-B
Sun 05:15:04 PM -28.6306 153.3445 17° North 327 376 25,500 -1,429 Descending FlightAware ADS-B
Sun 05:15:36 PM -28.5832 153.3609 17° North 316 364 24,800 -1,143 Descending FlightAware ADS-B (CYQF)
Sun 05:16:07 PM -28.5411 153.3753 17° North 301 346 24,300 -1,125 Descending FlightAware ADS-B (EGHI / SOU)
Sun 05:16:40 PM -28.4965 153.3905 17° North 287 330 23,600 -1,273 Descending FlightAware ADS-B (EGHI / SOU)
Sun 05:17:13 PM -28.4546 153.4048 17° North 293 337 22,900 -1,619 Descending FlightAware ADS-B
Sun 05:17:43 PM -28.4147 153.4188 17° North 305 351 21,900 -1,672 Descending FlightAware ADS-B
Sun 05:18:14 PM -28.3746 153.4330 17° North 301 346 21,200 -1,114 Descending FlightAware ADS-B
Sun 05:18:53 PM -28.3239 153.4574 41° Northeast 321 369 20,600 -960 Descending FlightAware ADS-B
Sun 05:19:04 PM -28.3140 153.4718 59° Northeast 335 386 20,400 -2,571 Descending FlightAware ADS-B
Sun 05:19:07 PM -28.3155 153.4690 60° Northeast 336 387 20,000 -1,500 Descending FlightAware ADS-B (CYQF)
Sun 05:19:44 PM -28.2890 153.5365 60° Northeast 336 387 19,400 -1,174 Descending FlightAware ADS-B
Sun 05:19:53 PM -28.2789 153.5510 46° Northeast 323 372 19,100 -1,263 Descending FlightAware ADS-B
Sun 05:20:03 PM -28.2691 153.5596 32° Northeast 306 352 19,000 -857 Descending FlightAware ADS-B
Sun 05:20:14 PM -28.2545 153.5665 18° North 290 334 18,800 -800 Descending FlightAware ADS-B
Sun 05:20:18 PM -28.2490 153.5675 North 282 325 18,800 -900 Level FlightAware ADS-B (CYQF)
Sun 05:20:34 PM -28.2288 153.5685 359° North 291 335 18,500 -1,440 Descending FlightAware ADS-B
Sun 05:20:43 PM -28.2144 153.5670 352° North 292 336 18,200 -1,231 Descending FlightAware ADS-B
Sun 05:21:13 PM -28.1756 153.5564 346° North 292 336 17,700 -1,300 Descending FlightAware ADS-B
Sun 05:21:43 PM -28.1350 153.5448 346° North 303 349 16,900 -1,574 Descending FlightAware ADS-B
Sun 05:22:14 PM -28.0943 153.5330 346° North 299 344 16,100 -1,574 Descending FlightAware ADS-B
Sun 05:22:44 PM -28.0551 153.5217 346° North 296 341 15,300 -1,500 Descending FlightAware ADS-B
Sun 05:23:14 PM -28.0163 153.5107 346° North 293 337 14,600 -1,469 Descending FlightAware ADS-B
Sun 05:23:33 PM -27.9894 153.5030 346° North 290 334 14,100 -1,469 Descending FlightAware ADS-B
Sun 05:24:03 PM -27.9494 153.4917 346° North 287 330 13,400 -1,475 Descending FlightAware ADS-B
Sun 05:24:34 PM -27.9109 153.4809 346° North 295 339 12,600 -1,521 Descending FlightAware ADS-B
Sun 05:25:14 PM -27.8567 153.4659 346° North 294 338 11,600 -1,500 Descending FlightAware ADS-B
Sun 05:25:34 PM -27.8315 153.4587 346° North 292 336 11,100 -1,500 Descending FlightAware ADS-B
Sun 05:26:06 PM -27.7916 153.4474 346° North 293 337 10,300 -1,592 Descending FlightAware ADS-B
Sun 05:26:23 PM -27.7668 153.4404 346° North 292 336 9,800 -1,579 Descending FlightAware ADS-B
Sun 05:26:44 PM -27.7384 153.4324 346° North 291 335 9,300 -1,650 Descending FlightAware ADS-B
Sun 05:27:03 PM -27.7137 153.4256 346° North 290 334 8,700 -1,692 Descending FlightAware ADS-B
Sun 05:27:23 PM -27.6882 153.4163 338° Northwest 287 330 8,200 -1,500 Descending FlightAware ADS-B
Sun 05:27:43 PM -27.6626 153.4044 337° Northwest 284 327 7,700 -1,317 Descending FlightAware ADS-B
Sun 05:28:04 PM -27.6383 153.3930 337° Northwest 282 325 7,300 -1,317 Descending FlightAware ADS-B
Sun 05:28:24 PM -27.6172 153.3832 338° Northwest 280 322 6,800 -1,538 Descending FlightAware ADS-B
Sun 05:28:43 PM -27.5908 153.3713 338° Northwest 279 321 6,300 -1,500 Descending FlightAware ADS-B
Sun 05:29:04 PM -27.5676 153.3607 338° Northwest 277 319 5,800 -1,200 Descending FlightAware ADS-B
Sun 05:29:23 PM -27.5431 153.3493 338° Northwest 269 310 5,500 -769 Descending FlightAware ADS-B
Sun 05:29:43 PM -27.5213 153.3392 338° Northwest 257 296 5,300 -878 Descending FlightAware ADS-B
Sun 05:30:04 PM -27.4990 153.3277 335° Northwest 255 293 4,900 -1,200 Descending FlightAware ADS-B
Sun 05:30:23 PM -27.4783 153.3166 334° Northwest 253 291 4,500 -1,077 Descending FlightAware ADS-B
Sun 05:30:43 PM -27.4579 153.3056 335° Northwest 249 287 4,200 -732 Descending FlightAware ADS-B
Sun 05:31:04 PM -27.4374 153.2948 335° Northwest 238 274 4,000 -450 Descending FlightAware ADS-B
Sun 05:31:23 PM -27.4180 153.2846 335° Northwest 225 259 3,900 -769 Descending FlightAware ADS-B
Sun 05:31:43 PM -27.3986 153.2741 334° Northwest 222 255 3,500 -1,200 Descending FlightAware ADS-B
Sun 05:32:03 PM -27.3809 153.2647 335° Northwest 217 250 3,100 -1,171 Descending FlightAware ADS-B
Sun 05:32:24 PM -27.3625 153.2552 335° Northwest 213 245 2,700 -1,050 Descending FlightAware ADS-B
Sun 05:32:43 PM -27.3447 153.2453 329° Northwest 204 235 2,400 -1,000 Descending FlightAware ADS-B
Sun 05:32:54 PM -27.3372 153.2386 318° Northwest 198 228 2,200 -1,200 Descending FlightAware ADS-B
Sun 05:33:03 PM -27.3315 153.2312 307° West 188 216 2,000 -1,200 Descending FlightAware ADS-B
Sun 05:33:14 PM -27.3274 153.2236 297° West 180 207 1,800 -1,091 Descending FlightAware ADS-B
Sun 05:33:25 PM -27.3240 153.2138 286° West 170 196 1,600 -828 Descending FlightAware ADS-B
Sun 05:33:43 PM -27.3223 153.1989 269° West 158 182 1,400 -632 Descending FlightAware ADS-B
Sun 05:34:03 PM -27.3246 153.1830 255° West 141 162 1,200 -750 Descending FlightAware ADS-B
Sun 05:34:23 PM -27.3295 153.1707 239° Southwest 133 153 900 -750 Descending FlightAware ADS-B
Sun 05:34:43 PM -27.3372 153.1598 226° Southwest 136 157 700 -750 Descending FlightAware ADS-B
Sun 05:35:03 PM -27.3468 153.1510 213° Southwest 134 154 400 -732 Descending FlightAware ADS-B
Sun 05:35:24 PM -27.3584 153.1438 208° Southwest 136 157 200 -571 Descending FlightAware ADS-B
Sun 05:36:04 PM -27.3806 153.1309 207° Southwest 131 151 -300 Descending FlightAware ADS-B

Login

Don't have an account? Register now (free) for customized features, flight alerts, and more!